Flight Track Log - Related Links

Times and Time Zones

All times are in EDT time to prevent confusion due to time zone crossing. See the PDT4429 flight status page for this flight to view local times or setup timezone preferences in your user account.

Time Position Orientation Groundspeed Altitude Reporting Facility
EDT Latitude Longitude Course Direction KTS MPH feet Rate Location/Type
Thu 09:49:12 AM 35.2306 -80.9367 160° South 141 162 1,400  Level Atlanta Center
Thu 09:50:32 AM 35.2331 -80.8731 87° East 181 208 3,000 1,234 Climbing Atlanta Center
Thu 09:51:00 AM 35.0046 -80.8690 158° South  Level FlightAware Approximate
Thu 09:51:33 AM 35.2189 -80.8150 107° East 184 212 4,300  Level Atlanta Center
Thu 09:52:00 AM 34.9387 -80.8360 158° South  Level FlightAware Approximate
Thu 09:52:34 AM 35.2069 -80.7547 104° East 184 212 5,500  Level Atlanta Center
Thu 09:53:00 AM 34.8721 -80.8092 151° Southeast  Level FlightAware Approximate
Thu 09:53:33 AM 35.1864 -80.6869 110° East 189 217 6,700  Level Atlanta Center
Thu 09:54:00 AM 34.8079 -80.7720 160° South  Level FlightAware Approximate
Thu 09:54:33 AM 35.1764 -80.6236 101° East 189 217 7,900  Level Atlanta Center
Thu 09:55:37 AM 35.1578 -80.5636 111° Southeast 194 223 9,000 1,000 Climbing Atlanta Center
Thu 09:56:33 AM 35.1106 -80.5833 199° South 178 205 9,900 983 Climbing Atlanta Center
Thu 09:57:33 AM 35.0761 -80.6228 223° Southwest 188 216 10,900 950 Climbing Atlanta Center
Thu 09:58:33 AM 35.0417 -80.6572 219° Southwest 199 229 11,800 850 Climbing Atlanta Center
Thu 09:59:33 AM 35.0031 -80.6992 222° Southwest 194 223 12,600 600 Climbing Atlanta Center
Thu 10:00:33 AM 34.9583 -80.7417 218° Southwest 199 229 13,000 200 Climbing Atlanta Center
Thu 10:01:33 AM 34.9117 -80.7892 220° Southwest 210 242 13,000 576 Level Atlanta Center
Thu 10:03:30 AM 34.7950 -80.7767 175° South 198 228 14,700 881 Climbing Jacksonville Center
Thu 10:04:30 AM 34.7425 -80.7550 161° South 203 234 15,600 800 Climbing Jacksonville Center
Thu 10:05:30 AM 34.6878 -80.7314 160° South 208 239 16,300 694 Climbing Jacksonville Center
Thu 10:06:31 AM 34.6353 -80.7072 159° South 208 239 17,000 650 Climbing Jacksonville Center
Thu 10:07:30 AM 34.5828 -80.6833 159° South 201 231 17,600 454 Climbing Jacksonville Center
Thu 10:08:30 AM 34.5281 -80.6597 160° South 208 239 17,900 200 Climbing Jacksonville Center
Thu 10:09:30 AM 34.4672 -80.6336 161° South 214 246 18,000 50 Climbing Jacksonville Center
Thu 10:10:30 AM 34.4019 -80.6075 162° South 228 262 18,000  Level Jacksonville Center
Thu 10:11:30 AM 34.3389 -80.5739 156° South 240 276 18,000  Level Jacksonville Center
Thu 10:12:30 AM 34.2756 -80.5406 156° South 250 288 18,000  Level Jacksonville Center
Thu 10:13:30 AM 34.2086 -80.5347 176° South 250 288 18,000  Level Jacksonville Center
Thu 10:14:30 AM 34.1422 -80.5492 190° South 232 267 18,000  Level Jacksonville Center
Thu 10:15:30 AM 34.0778 -80.5583 187° South 238 274 18,000  Level Jacksonville Center
Thu 10:16:30 AM 34.0111 -80.5628 183° South 238 274 18,000  Level Jacksonville Center
Thu 10:17:31 AM 33.9442 -80.5644 181° South 238 274 18,000  Level Jacksonville Center
Thu 10:18:30 AM 33.8775 -80.5686 183° South 238 274 18,000  Level Jacksonville Center
Thu 10:19:30 AM 33.8108 -80.5731 183° South 233 268 18,000  Level Jacksonville Center
Thu 10:20:30 AM 33.7464 -80.5772 183° South 233 268 18,000  Level Jacksonville Center
Thu 10:21:30 AM 33.6817 -80.5839 185° South 233 268 18,000  Level Jacksonville Center
Thu 10:22:30 AM 33.6172 -80.5906 185° South 233 268 18,000  Level Jacksonville Center
Thu 10:23:30 AM 33.5483 -80.5922 181° South 233 268 18,000  Level Jacksonville Center
Thu 10:24:30 AM 33.4817 -80.5989 185° South 233 268 18,000 -300 Level Jacksonville Center
Thu 10:25:30 AM 33.4131 -80.6108 188° South 240 276 17,400 -800 Descending Jacksonville Center
Thu 10:26:30 AM 33.3381 -80.6178 184° South 257 296 16,400 -1,100 Descending Jacksonville Center
Thu 10:27:30 AM 33.2608 -80.6197 181° South 271 312 15,200 -1,200 Descending Jacksonville Center
Thu 10:28:30 AM 33.1817 -80.6217 181° South 282 325 14,000 -1,250 Descending Jacksonville Center
Thu 10:29:30 AM 33.1022 -80.6261 183° South 287 330 12,700 -1,250 Descending Jacksonville Center
Thu 10:30:30 AM 33.0231 -80.6331 184° South 287 330 11,500 -850 Descending Jacksonville Center
Thu 10:31:30 AM 32.9481 -80.6400 184° South 287 330 11,000 -250 Descending Jacksonville Center
Thu 10:32:30 AM 32.8794 -80.6467 185° South 276 318 11,000 -200 Level Jacksonville Center
Thu 10:33:30 AM 32.8083 -80.6508 183° South 260 299 10,600 -1,400 Descending Jacksonville Center
Thu 10:34:30 AM 32.7464 -80.6844 205° Southwest 254 292 8,200 -2,300 Descending Jacksonville Center
Thu 10:35:30 AM 32.6781 -80.7208 204° Southwest 259 298 6,000 -1,950 Descending Jacksonville Center
Thu 10:36:30 AM 32.6139 -80.7419 195° South 255 293 4,300 -1,000 Descending Jacksonville Center
Thu 10:37:30 AM 32.5467 -80.7239 167° South 239 275 4,000 -248 Descending Jacksonville Center
Thu 10:38:31 AM 32.4922 -80.7103 168° South 239 275 3,800 -800 Descending Jacksonville Center
Thu 10:39:30 AM 32.4186 -80.6875 165° South 239 275 2,400 -1,109 Descending Jacksonville Center
Thu 10:40:30 AM 32.3664 -80.6717 166° South 229 264 1,600 -800 Descending Jacksonville Center

Login

Don't have an account? Register now (free) for customized features, flight alerts, and more!